Time;durP1;ratioP1;P1;durP2;ratioP2;P2;SDS_P1;SDS_P2;PMS_P1;PMS_P2;Temp;Humidity;BMP_temperature;BMP_pressure;BME280_temperature;BME280_humidity;BME280_pressure;Samples;Min_cycle;Max_cycle;Signal;HPM_P1;HPM_P2
2023/02/27 00:02:07;;;;;;;6.55;0.60;;;;;;;4.69;88.31;102534.25;5121489;28;20019;-67
2023/02/27 00:04:33;;;;;;;4.30;0.63;;;;;;;4.74;87.61;102541.94;5116352;27;20438;-67
2023/02/27 00:06:58;;;;;;;9.18;0.90;;;;;;;4.72;87.30;102549.19;5117560;28;20023;-67
2023/02/27 00:09:24;;;;;;;8.90;0.90;;;;;;;4.57;88.24;102529.91;5117528;28;20032;-67
2023/02/27 00:11:49;;;;;;;6.30;1.00;;;;;;;4.61;87.76;102555.34;5119658;28;20073;-68
2023/02/27 00:14:14;;;;;;;4.82;0.80;;;;;;;4.58;88.39;102557.41;5117135;28;20023;-67
2023/02/27 00:16:40;;;;;;;10.10;1.42;;;;;;;4.52;88.32;102558.72;5116522;28;20110;-67
2023/02/27 00:19:05;;;;;;;3.88;1.13;;;;;;;4.50;87.77;102557.97;5121043;28;20062;-67
2023/02/27 00:21:31;;;;;;;6.80;1.20;;;;;;;4.42;87.75;102573.69;5121383;28;20504;-67
2023/02/27 00:23:57;;;;;;;8.18;1.10;;;;;;;4.38;88.24;102564.25;5120633;28;20043;-67
2023/02/27 00:26:23;;;;;;;5.50;0.88;;;;;;;4.33;88.30;102572.56;5123710;28;20023;-67
2023/02/27 00:28:48;;;;;;;7.13;1.20;;;;;;;4.38;88.52;102569.56;5124211;27;20082;-67
2023/02/27 00:31:14;;;;;;;8.13;0.65;;;;;;;4.29;88.82;102568.44;5123263;28;20054;-67
2023/02/27 00:33:39;;;;;;;4.78;0.70;;;;;;;4.29;88.32;102555.13;5121186;28;20058;-67
2023/02/27 00:36:05;;;;;;;9.93;1.40;;;;;;;4.37;88.38;102566.06;5105043;28;20118;-67
2023/02/27 00:38:30;;;;;;;11.32;0.90;;;;;;;4.33;88.75;102571.72;5121008;28;20039;-67
2023/02/27 00:40:56;;;;;;;6.28;1.10;;;;;;;4.29;88.39;102568.44;5122170;28;20034;-67
2023/02/27 00:43:22;;;;;;;14.82;0.98;;;;;;;4.24;88.59;102571.47;5121545;28;20099;-67
2023/02/27 00:45:48;;;;;;;8.73;0.90;;;;;;;4.27;88.62;102566.84;5121100;28;20091;-67
2023/02/27 00:48:13;;;;;;;7.25;0.90;;;;;;;4.37;89.01;102575.84;5122285;28;20713;-67
2023/02/27 00:50:39;;;;;;;16.35;1.15;;;;;;;4.36;89.27;102560.84;5122015;28;20035;-67
2023/02/27 00:53:05;;;;;;;7.43;0.95;;;;;;;4.41;88.54;102566.69;5120036;28;20031;-67
2023/02/27 00:55:30;;;;;;;11.43;1.10;;;;;;;4.47;88.58;102584.88;5119979;28;20360;-67
2023/02/27 00:57:56;;;;;;;9.02;0.75;;;;;;;4.46;89.03;102576.00;5121682;28;20542;-67
2023/02/27 01:00:21;;;;;;;8.68;0.95;;;;;;;4.45;89.22;102568.13;5119541;28;20016;-67
2023/02/27 01:02:46;;;;;;;9.20;1.00;;;;;;;4.48;89.52;102567.91;5119637;28;20079;-67
2023/02/27 01:05:13;;;;;;;7.00;1.00;;;;;;;4.42;89.92;102555.88;5118279;28;20031;-67
2023/02/27 01:07:38;;;;;;;9.43;1.08;;;;;;;4.53;89.94;102578.22;5119952;28;20200;-66
2023/02/27 01:10:05;;;;;;;11.88;1.35;;;;;;;4.52;89.79;102574.69;5115519;28;20023;-67
2023/02/27 01:12:31;;;;;;;9.60;0.98;;;;;;;4.53;90.19;102576.41;5115307;28;20525;-67
2023/02/27 01:14:56;;;;;;;16.02;1.30;;;;;;;4.53;90.20;102579.06;5101530;28;20028;-67
2023/02/27 01:17:22;;;;;;;9.60;1.13;;;;;;;4.54;90.42;102570.13;5118186;28;20110;-67
2023/02/27 01:19:47;;;;;;;11.10;1.00;;;;;;;4.41;90.54;102562.19;5119825;28;20146;-67
2023/02/27 01:22:13;;;;;;;12.07;0.90;;;;;;;4.52;90.92;102573.88;5117423;28;20023;-67
2023/02/27 01:24:38;;;;;;;14.52;1.20;;;;;;;4.45;90.44;102579.66;5116902;28;20020;-67
2023/02/27 01:27:03;;;;;;;9.38;1.00;;;;;;;4.29;90.53;102580.91;5118982;28;20434;-67
2023/02/27 01:29:29;;;;;;;10.13;1.00;;;;;;;3.98;91.20;102551.22;5117487;28;20031;-67
2023/02/27 01:31:54;;;;;;;12.40;1.33;;;;;;;3.47;91.10;102474.19;5117167;28;20063;-67
2023/02/27 01:34:20;;;;;;;10.05;1.60;;;;;;;4.10;91.35;102579.59;5117224;28;20031;-67
2023/02/27 01:36:45;;;;;;;11.15;1.33;;;;;;;4.12;91.58;102576.84;5118576;28;20027;-67
2023/02/27 01:39:11;;;;;;;7.53;0.82;;;;;;;4.17;91.40;102575.53;5116478;28;20510;-67
2023/02/27 01:41:36;;;;;;;10.48;1.05;;;;;;;4.19;91.52;102570.09;5111107;28;20389;-67
2023/02/27 01:44:08;;;;;;;10.48;0.93;;;;;;;4.23;91.47;102564.41;5115866;28;20032;-68
2023/02/27 01:46:34;;;;;;;11.88;1.10;;;;;;;4.20;91.58;102563.78;5119840;28;20038;-67
2023/02/27 01:49:17;;;;;;;10.52;0.95;;;;;;;4.02;91.57;102555.34;5118795;28;20027;-67
2023/02/27 01:51:47;;;;;;;10.18;0.88;;;;;;;4.02;91.86;102555.34;5118312;28;20203;-67
2023/02/27 01:54:18;;;;;;;12.73;1.83;;;;;;;4.07;91.89;102557.66;5120590;28;20159;-69
2023/02/27 01:56:43;;;;;;;7.90;0.93;;;;;;;4.00;91.30;102560.78;5119559;28;20039;-67
2023/02/27 01:59:10;;;;;;;9.57;1.92;;;;;;;3.93;91.31;102564.88;5120114;28;20028;-68
2023/02/27 02:01:36;;;;;;;15.52;1.20;;;;;;;3.88;91.83;102567.03;5099068;28;20020;-68
2023/02/27 02:04:34;;;;;;;9.30;1.15;;;;;;;3.89;91.86;102571.38;5114345;28;20039;-67
2023/02/27 02:07:02;;;;;;;7.03;0.82;;;;;;;4.02;91.62;102571.34;5106075;28;20118;-67
2023/02/27 02:09:29;;;;;;;13.13;1.20;;;;;;;4.11;91.65;102575.16;5120259;28;20104;-67
2023/02/27 02:11:56;;;;;;;8.52;1.35;;;;;;;4.11;91.61;102573.34;5119152;28;20058;-68
2023/02/27 02:14:22;;;;;;;12.80;1.20;;;;;;;4.08;91.60;102581.56;5119900;28;20035;-67
2023/02/27 02:17:09;;;;;;;8.30;0.90;;;;;;;4.04;91.40;102582.75;5102720;28;20043;-67
2023/02/27 02:20:08;;;;;;;10.63;0.90;;;;;;;4.01;91.73;102593.63;5120234;28;20047;-67
2023/02/27 02:22:58;;;;;;;4.32;0.75;;;;;;;4.01;91.88;102601.63;5118290;28;20027;-68
2023/02/27 02:25:48;;;;;;;7.25;1.20;;;;;;;4.00;91.53;102591.91;5120105;28;20031;-67
2023/02/27 02:28:45;;;;;;;11.20;1.25;;;;;;;4.05;92.02;102600.41;5119228;28;20120;-67
2023/02/27 02:31:16;;;;;;;9.93;1.08;;;;;;;4.01;92.24;102596.28;5130961;28;20038;-67
2023/02/27 02:34:03;;;;;;;10.05;1.33;;;;;;;4.10;91.50;102597.41;5131850;28;20313;-67
2023/02/27 02:36:41;;;;;;;7.60;1.20;;;;;;;4.10;92.15;102600.06;5132283;28;20087;-67
2023/02/27 02:39:15;;;;;;;9.60;1.40;;;;;;;4.09;92.24;102604.56;5128998;28;20043;-67
2023/02/27 02:41:55;;;;;;;10.25;1.52;;;;;;;3.93;91.83;102588.00;5120473;28;20034;-67
2023/02/27 02:44:30;;;;;;;9.43;1.17;;;;;;;4.00;92.28;102594.56;5119685;28;20049;-67
2023/02/27 02:47:09;;;;;;;9.02;1.35;;;;;;;4.02;92.01;102595.31;5120061;28;20028;-67
2023/02/27 02:49:48;;;;;;;7.93;1.08;;;;;;;4.05;92.07;102597.75;5118873;28;20102;-67
2023/02/27 02:52:32;;;;;;;5.88;1.00;;;;;;;4.21;92.43;102598.31;5121085;28;20122;-67
2023/02/27 02:55:07;;;;;;;9.27;1.65;;;;;;;4.27;92.12;102597.00;5118892;28;20027;-68
2023/02/27 02:58:00;;;;;;;12.27;1.33;;;;;;;4.24;92.79;102600.78;5121255;28;20042;-68
2023/02/27 03:00:32;;;;;;;8.32;1.20;;;;;;;4.23;92.29;102603.53;5117743;28;20026;-67
2023/02/27 03:03:17;;;;;;;7.88;1.25;;;;;;;4.28;93.02;102604.06;5119445;28;20172;-67
2023/02/27 03:05:51;;;;;;;4.13;0.77;;;;;;;4.27;92.36;102599.66;5114415;28;20023;-67
2023/02/27 03:08:23;;;;;;;7.63;1.10;;;;;;;4.19;92.50;102597.56;5115112;28;20027;-68
2023/02/27 03:10:56;;;;;;;10.60;1.33;;;;;;;4.16;92.88;102600.47;5127491;28;20032;-68
2023/02/27 03:13:45;;;;;;;7.20;1.00;;;;;;;4.31;93.04;102622.47;5119637;28;20042;-67
2023/02/27 03:16:35;;;;;;;11.63;1.20;;;;;;;4.44;93.27;102622.44;5117891;28;20492;-67
2023/02/27 03:19:12;;;;;;;10.93;1.52;;;;;;;4.51;92.81;102631.66;5118338;28;20065;-67
2023/02/27 03:21:45;;;;;;;12.15;1.80;;;;;;;4.53;92.78;102624.38;5119523;28;20015;-67
2023/02/27 03:24:19;;;;;;;11.52;1.40;;;;;;;4.58;92.81;102632.91;5115914;28;20497;-67
2023/02/27 03:26:49;;;;;;;7.50;1.15;;;;;;;4.57;92.61;102623.22;5118872;28;20386;-67
2023/02/27 03:29:21;;;;;;;12.10;1.70;;;;;;;4.66;92.71;102630.50;5120448;28;20020;-67
2023/02/27 03:31:59;;;;;;;9.88;1.50;;;;;;;4.59;93.62;102621.25;5116352;28;20482;-67
2023/02/27 03:34:33;;;;;;;7.72;1.00;;;;;;;4.62;93.04;102625.50;5118948;28;20058;-67
2023/02/27 03:37:32;;;;;;;12.57;1.38;;;;;;;4.51;93.40;102604.16;5119110;28;20028;-67
2023/02/27 03:40:26;;;;;;;6.75;1.10;;;;;;;4.66;93.45;102634.97;5117556;28;20039;-67
2023/02/27 03:43:06;;;;;;;8.45;1.30;;;;;;;4.62;93.23;102628.19;5119044;28;20032;-67
2023/02/27 03:45:44;;;;;;;6.25;0.98;;;;;;;4.57;93.25;102633.00;5118880;28;20023;-67
2023/02/27 03:48:10;;;;;;;6.80;1.13;;;;;;;4.32;93.30;102600.19;5118736;28;20022;-68
2023/02/27 03:50:36;;;;;;;10.40;1.17;;;;;;;4.52;93.56;102627.19;5117553;28;20027;-68
2023/02/27 03:53:08;;;;;;;7.30;1.00;;;;;;;4.55;93.07;102634.94;5117788;28;20501;-68
2023/02/27 03:55:38;;;;;;;3.95;1.10;;;;;;;4.54;93.64;102639.44;5127207;28;20007;-67
2023/02/27 03:58:04;;;;;;;15.30;2.75;;;;;;;4.51;93.54;102641.47;5118025;28;20012;-67
2023/02/27 04:00:30;;;;;;;4.65;1.00;;;;;;;4.46;92.98;102647.13;5113938;28;20020;-67
2023/02/27 04:02:58;;;;;;;3.65;1.00;;;;;;;4.41;92.76;102649.31;5117048;28;20038;-67
2023/02/27 04:05:25;;;;;;;4.43;1.40;;;;;;;4.32;92.91;102648.16;5114156;28;20020;-68
2023/02/27 04:07:57;;;;;;;4.72;1.30;;;;;;;4.35;93.77;102655.09;5118884;28;20438;-67
2023/02/27 04:10:48;;;;;;;6.70;1.40;;;;;;;4.33;93.10;102655.19;5117624;28;20060;-67
2023/02/27 04:13:23;;;;;;;7.68;1.42;;;;;;;4.30;92.82;102650.06;5117766;28;20031;-67
2023/02/27 04:16:08;;;;;;;7.80;1.98;;;;;;;4.21;93.18;102651.63;5118959;28;20028;-67
2023/02/27 04:18:53;;;;;;;4.63;1.23;;;;;;;4.24;93.01;102647.88;5118403;28;20027;-67
2023/02/27 04:21:33;;;;;;;5.30;1.25;;;;;;;4.26;93.35;102643.28;5117636;28;20047;-67
2023/02/27 04:24:27;;;;;;;8.38;1.65;;;;;;;4.33;93.19;102652.50;5122084;28;20038;-67
2023/02/27 04:27:12;;;;;;;3.45;1.02;;;;;;;4.36;93.20;102654.97;5120805;28;20354;-67
2023/02/27 04:30:42;;;;;;;5.78;1.20;;;;;;;4.41;93.20;102654.63;5118523;28;20019;-67
2023/02/27 04:33:13;;;;;;;10.43;1.30;;;;;;;4.43;93.01;102666.00;5054402;28;20114;-68
2023/02/27 04:35:49;;;;;;;7.90;1.50;;;;;;;4.15;92.74;102668.06;5120398;28;20030;-67
2023/02/27 04:38:45;;;;;;;4.07;1.30;;;;;;;3.99;92.91;102668.31;5120944;28;20093;-67
2023/02/27 04:41:13;;;;;;;;;;;;;;;4.06;94.14;102662.53;5113314;28;20028;-67
2023/02/27 04:43:40;;;;;;;6.55;1.20;;;;;;;4.04;93.07;102654.66;5127144;28;19977;-68
2023/02/27 04:46:10;;;;;;;7.97;1.20;;;;;;;4.16;92.55;102661.75;5117998;28;20019;-68
2023/02/27 04:48:55;;;;;;;6.45;1.17;;;;;;;4.25;92.88;102665.56;5120103;28;20023;-67
2023/02/27 04:51:25;;;;;;;5.18;1.08;;;;;;;4.34;93.05;102659.56;5118745;27;20458;-67
2023/02/27 04:53:53;;;;;;;6.35;1.30;;;;;;;4.24;92.53;102643.41;5119686;28;20393;-67
2023/02/27 04:56:28;;;;;;;5.57;1.27;;;;;;;4.42;92.99;102670.50;5121841;28;20091;-66
2023/02/27 04:58:55;;;;;;;;;;;;;;;4.42;93.26;102681.16;5121573;28;20081;-67
2023/02/27 05:01:39;;;;;;;7.10;1.35;;;;;;;3.71;95.23;102672.09;5121619;28;19994;-66
2023/02/27 05:04:11;;;;;;;4.28;1.50;;;;;;;3.73;96.15;102695.94;5119319;28;20080;-67
2023/02/27 05:06:41;;;;;;;6.97;1.70;;;;;;;3.93;94.41;102689.19;5120400;28;20027;-67
2023/02/27 05:09:09;;;;;;;4.68;1.52;;;;;;;4.04;93.79;102701.75;5118890;28;20397;-68
2023/02/27 05:11:46;;;;;;;8.40;1.38;;;;;;;4.11;93.42;102698.53;5119357;28;20027;-68
2023/02/27 05:14:19;;;;;;;6.78;1.50;;;;;;;4.07;92.97;102696.19;5120549;27;20462;-68
2023/02/27 05:16:55;;;;;;;3.38;1.38;;;;;;;4.11;93.15;102698.53;5119921;27;20160;-67
2023/02/27 05:19:21;;;;;;;3.58;1.05;;;;;;;4.22;92.53;102700.44;5119364;28;20055;-67
2023/02/27 05:22:25;;;;;;;5.03;1.05;;;;;;;4.32;93.19;102714.78;5118325;28;20370;-67
2023/02/27 05:25:16;;;;;;;4.07;1.10;;;;;;;4.37;92.85;102719.78;5105273;28;20039;-68
2023/02/27 05:28:01;;;;;;;6.78;1.17;;;;;;;4.29;92.34;102700.84;5116644;28;20048;-68
2023/02/27 05:30:32;;;;;;;6.95;1.95;;;;;;;4.37;92.24;102714.44;5118195;28;20028;-67
2023/02/27 05:33:05;;;;;;;9.93;3.05;;;;;;;4.20;92.67;102713.00;5117831;28;20034;-67
2023/02/27 05:35:53;;;;;;;9.68;2.40;;;;;;;4.06;92.50;102681.19;5119077;28;20035;-67
2023/02/27 05:38:27;;;;;;;5.53;2.50;;;;;;;4.29;92.98;102711.50;5118614;28;20028;-68
2023/02/27 05:41:00;;;;;;;5.47;1.58;;;;;;;4.32;92.87;102708.59;5136424;27;20450;-68
2023/02/27 05:43:27;;;;;;;7.28;1.70;;;;;;;4.33;92.04;102705.81;5118965;28;20058;-68
2023/02/27 05:46:00;;;;;;;4.53;1.63;;;;;;;4.38;92.62;102710.84;5118207;28;20068;-68
2023/02/27 05:48:38;;;;;;;5.78;1.27;;;;;;;4.40;92.72;102707.09;5116652;28;20020;-67
2023/02/27 05:51:07;;;;;;;6.45;1.48;;;;;;;4.40;92.29;102708.88;5117355;28;20020;-68
2023/02/27 05:53:40;;;;;;;2.78;0.95;;;;;;;4.39;92.60;102705.38;5117275;28;20371;-68
2023/02/27 05:56:07;;;;;;;3.75;1.15;;;;;;;4.35;92.52;102705.72;5116551;28;20474;-67
2023/02/27 05:58:40;;;;;;;4.18;1.10;;;;;;;4.31;92.61;102705.09;5115198;28;20042;-68
2023/02/27 06:01:08;;;;;;;3.80;1.38;;;;;;;4.33;92.33;102694.31;5120010;28;20054;-68
2023/02/27 06:03:35;;;;;;;5.72;1.38;;;;;;;4.26;92.27;102696.56;5120198;28;20142;-68
2023/02/27 06:06:04;;;;;;;4.57;1.27;;;;;;;4.31;92.54;102704.25;5120167;28;20044;-68
2023/02/27 06:08:29;;;;;;;7.07;1.45;;;;;;;4.29;92.23;102701.69;5119319;28;20481;-67
2023/02/27 06:10:55;;;;;;;4.97;1.00;;;;;;;4.21;91.90;102696.91;5118791;28;20118;-68
2023/02/27 06:13:22;;;;;;;4.18;1.20;;;;;;;4.11;92.21;102684.38;5120248;28;20034;-67
2023/02/27 06:15:48;;;;;;;5.85;1.13;;;;;;;4.21;92.11;102707.56;5119988;28;20035;-68
2023/02/27 06:18:15;;;;;;;3.33;0.88;;;;;;;4.22;92.30;102709.25;5119723;28;20089;-68
2023/02/27 06:20:41;;;;;;;5.85;1.17;;;;;;;4.19;91.99;102705.97;5121414;28;20121;-67
2023/02/27 06:23:07;;;;;;;2.33;1.00;;;;;;;4.14;91.96;102716.97;5120911;28;20050;-67
2023/02/27 06:25:33;;;;;;;6.25;1.02;;;;;;;4.10;91.93;102702.16;5119748;28;20023;-67
2023/02/27 06:27:58;;;;;;;6.82;1.02;;;;;;;4.01;92.29;102705.50;5119225;28;20027;-68
2023/02/27 06:30:24;;;;;;;4.45;0.85;;;;;;;3.94;92.29;102713.06;5119035;27;20119;-67
2023/02/27 06:32:49;;;;;;;7.45;1.30;;;;;;;3.89;92.07;102709.03;5117273;28;20035;-67
2023/02/27 06:35:15;;;;;;;3.25;1.00;;;;;;;3.88;91.57;102707.34;5117053;28;20031;-67
2023/02/27 06:37:41;;;;;;;3.45;1.00;;;;;;;3.88;91.53;102718.81;5096430;28;20039;-68
2023/02/27 06:40:13;;;;;;;3.78;1.15;;;;;;;3.86;92.11;102725.22;5082911;28;20027;-67
2023/02/27 06:42:40;;;;;;;6.05;1.10;;;;;;;3.71;91.73;102712.03;5101041;28;20051;-67
2023/02/27 06:45:06;;;;;;;4.07;1.00;;;;;;;3.87;92.21;102733.09;5100625;28;20116;-68
2023/02/27 06:47:32;;;;;;;4.13;1.00;;;;;;;3.78;91.83;102730.25;5100148;28;20036;-67
2023/02/27 06:49:58;;;;;;;4.28;1.00;;;;;;;3.67;91.80;102734.47;5100283;28;20080;-67
2023/02/27 06:52:24;;;;;;;5.05;1.15;;;;;;;3.74;91.84;102753.53;5101078;28;20051;-68
2023/02/27 06:54:49;;;;;;;2.95;1.10;;;;;;;3.58;92.25;102743.13;5101453;28;20040;-68
2023/02/27 06:57:15;;;;;;;3.28;1.30;;;;;;;3.68;92.37;102754.00;5099998;28;20049;-67
2023/02/27 06:59:41;;;;;;;3.45;1.10;;;;;;;3.71;91.48;102753.78;5079843;28;20421;-67
2023/02/27 07:02:06;;;;;;;4.88;1.30;;;;;;;3.77;92.10;102748.00;5097472;28;20023;-68
2023/02/27 07:04:32;;;;;;;5.85;1.20;;;;;;;3.81;91.62;102741.53;5098220;28;20028;-68
2023/02/27 07:06:58;;;;;;;4.25;1.15;;;;;;;3.67;91.45;102726.50;5096871;28;20032;-68
2023/02/27 07:09:24;;;;;;;7.57;1.25;;;;;;;3.84;91.66;102757.28;5097271;28;20146;-67
2023/02/27 07:11:49;;;;;;;3.35;1.20;;;;;;;3.89;91.08;102762.28;5097130;28;20028;-67
2023/02/27 07:14:15;;;;;;;4.80;1.27;;;;;;;3.95;91.66;102761.88;5098986;28;20016;-68
2023/02/27 07:16:41;;;;;;;4.78;1.30;;;;;;;3.91;91.28;102734.59;5098242;28;20032;-68
2023/02/27 07:19:07;;;;;;;4.78;1.25;;;;;;;4.15;91.39;102758.63;5097364;28;20044;-67
2023/02/27 07:21:32;;;;;;;2.75;1.30;;;;;;;4.20;90.67;102758.28;5097819;28;20028;-68
2023/02/27 07:23:58;;;;;;;3.75;1.50;;;;;;;4.23;90.76;102750.94;5090800;28;20028;-67
2023/02/27 07:26:23;;;;;;;3.95;1.30;;;;;;;4.42;90.56;102760.28;5080521;28;20032;-68
2023/02/27 07:28:49;;;;;;;2.38;1.30;;;;;;;4.40;90.80;102748.88;5099607;28;20028;-67
2023/02/27 07:31:14;;;;;;;4.82;1.40;;;;;;;4.31;90.72;102731.75;5099156;28;20020;-67
2023/02/27 07:33:40;;;;;;;3.72;1.17;;;;;;;4.63;90.72;102782.69;5097585;28;20020;-68
2023/02/27 07:36:06;;;;;;;6.40;1.15;;;;;;;4.69;90.64;102784.94;5098903;28;20060;-68
2023/02/27 07:38:32;;;;;;;4.65;1.23;;;;;;;4.74;90.69;102779.28;5097830;28;20478;-67
2023/02/27 07:40:57;;;;;;;6.28;1.30;;;;;;;4.80;90.93;102784.16;5098587;28;20078;-67
2023/02/27 07:43:24;;;;;;;5.65;1.23;;;;;;;4.73;90.78;102758.88;5099069;28;20220;-67
2023/02/27 07:45:50;;;;;;;6.32;1.10;;;;;;;4.83;90.20;102770.56;5081696;28;20028;-67
2023/02/27 07:48:17;;;;;;;4.95;1.27;;;;;;;4.98;90.04;102789.94;5080064;28;20035;-68
2023/02/27 07:50:42;;;;;;;5.45;1.35;;;;;;;5.03;89.93;102794.94;5098296;28;20028;-67
2023/02/27 07:53:08;;;;;;;5.20;1.25;;;;;;;4.89;89.96;102778.13;5098775;28;20356;-67
2023/02/27 07:55:34;;;;;;;3.63;1.02;;;;;;;4.97;89.96;102788.25;5098265;28;20024;-68
2023/02/27 07:57:59;;;;;;;2.92;1.00;;;;;;;5.06;90.46;102797.38;5100935;28;20020;-68
2023/02/27 08:00:25;;;;;;;3.50;1.60;;;;;;;5.06;90.08;102795.53;5100574;28;20143;-67
2023/02/27 08:02:50;;;;;;;4.18;1.38;;;;;;;5.02;90.05;102791.41;5100342;28;20028;-67
2023/02/27 08:05:15;;;;;;;5.35;1.50;;;;;;;5.07;89.82;102791.94;5067850;28;20551;-67
2023/02/27 08:07:41;;;;;;;3.90;1.17;;;;;;;5.09;90.05;102787.31;5102616;28;20024;-66
2023/02/27 08:10:07;;;;;;;2.97;1.17;;;;;;;5.14;90.02;102779.00;5102328;28;20035;-67
2023/02/27 08:12:33;;;;;;;4.30;1.30;;;;;;;5.26;90.12;102782.53;5101340;28;20037;-67
2023/02/27 08:14:59;;;;;;;5.32;1.30;;;;;;;5.28;89.65;102785.94;5102278;28;20035;-66
2023/02/27 08:17:24;;;;;;;12.50;2.67;;;;;;;5.41;89.75;102779.56;5100936;28;20051;-67
2023/02/27 08:19:50;;;;;;;2.75;1.15;;;;;;;5.36;89.07;102767.53;5099507;28;20044;-66
2023/02/27 08:22:15;;;;;;;4.97;1.13;;;;;;;5.46;89.32;102779.19;5082302;28;20035;-67
2023/02/27 08:24:42;;;;;;;4.32;1.20;;;;;;;5.41;89.09;102781.38;5097598;28;20073;-67
2023/02/27 08:27:07;;;;;;;6.57;1.52;;;;;;;5.30;89.49;102787.53;5100046;28;20036;-66
2023/02/27 08:29:33;;;;;;;5.28;1.40;;;;;;;5.19;89.81;102796.34;5099659;28;20135;-66
2023/02/27 08:32:01;;;;;;;4.00;1.40;;;;;;;5.14;89.42;102793.19;5099936;28;20016;-65
2023/02/27 08:34:27;;;;;;;4.32;1.70;;;;;;;5.11;89.72;102792.56;5101224;28;20108;-66
2023/02/27 08:36:53;;;;;;;7.60;2.00;;;;;;;5.12;88.95;102797.75;5098136;28;20048;-67
2023/02/27 08:39:19;;;;;;;6.18;2.15;;;;;;;5.19;89.17;102803.50;5080706;28;20081;-66
2023/02/27 08:41:44;;;;;;;2.92;1.65;;;;;;;5.29;88.84;102803.66;5096857;28;20069;-68
2023/02/27 08:44:11;;;;;;;4.85;1.85;;;;;;;5.35;88.46;102801.38;5080613;28;20097;-67
2023/02/27 08:46:37;;;;;;;4.20;1.70;;;;;;;5.27;88.13;102784.25;5097204;28;20077;-67
2023/02/27 08:49:03;;;;;;;4.95;1.60;;;;;;;5.42;87.98;102805.28;5091803;28;20035;-67
2023/02/27 08:51:28;;;;;;;2.65;1.73;;;;;;;5.46;88.09;102805.91;5096567;28;20036;-66
2023/02/27 08:53:57;;;;;;;6.03;1.73;;;;;;;5.55;88.14;102807.03;5099337;28;20031;-67
2023/02/27 08:56:24;;;;;;;3.85;1.50;;;;;;;5.69;87.83;102822.00;5097511;28;20028;-67
2023/02/27 08:58:50;;;;;;;6.53;1.60;;;;;;;5.79;87.11;102818.50;5095500;28;20024;-67
2023/02/27 09:01:15;;;;;;;3.70;1.40;;;;;;;5.92;87.09;102834.41;5079567;28;20027;-67
2023/02/27 09:03:41;;;;;;;2.75;1.20;;;;;;;6.05;86.58;102821.00;5101114;28;20046;-67
2023/02/27 09:06:06;;;;;;;3.45;1.50;;;;;;;6.21;85.94;102821.50;5100795;28;20039;-67
2023/02/27 09:08:32;;;;;;;2.90;1.30;;;;;;;6.28;86.04;102835.22;5098748;28;20040;-67
2023/02/27 09:10:58;;;;;;;2.58;1.10;;;;;;;6.43;85.52;102838.53;5098822;28;20036;-67
2023/02/27 09:13:23;;;;;;;3.67;1.40;;;;;;;6.54;85.05;102841.19;5100221;28;20032;-67
2023/02/27 09:15:49;;;;;;;4.95;1.50;;;;;;;6.70;84.32;102848.84;5098380;28;20517;-67
2023/02/27 09:18:14;;;;;;;2.53;0.98;;;;;;;6.75;84.67;102843.94;5099751;28;20056;-67
2023/02/27 09:20:40;;;;;;;5.65;1.40;;;;;;;6.78;84.59;102838.34;5083841;28;20056;-67
2023/02/27 09:23:06;;;;;;;2.53;1.27;;;;;;;7.10;84.05;102865.19;5099603;28;20070;-67
2023/02/27 09:25:31;;;;;;;3.53;1.20;;;;;;;7.27;83.11;102872.66;5094821;28;20051;-67
2023/02/27 09:27:57;;;;;;;4.65;1.25;;;;;;;7.40;83.06;102867.16;5097782;28;20028;-67
2023/02/27 09:30:23;;;;;;;2.17;1.35;;;;;;;7.45;82.67;102864.94;5079983;28;20036;-67
2023/02/27 09:32:49;;;;;;;3.78;1.40;;;;;;;7.46;82.48;102863.97;5099574;28;20115;-68
2023/02/27 09:35:15;;;;;;;3.13;1.40;;;;;;;7.46;81.75;102865.78;5099377;28;20028;-67
2023/02/27 09:37:42;;;;;;;4.63;1.40;;;;;;;7.52;81.55;102860.78;5097169;28;20356;-67
2023/02/27 09:40:19;;;;;;;3.70;1.10;;;;;;;7.49;80.57;102850.31;5098032;28;20031;-67
2023/02/27 09:42:46;;;;;;;3.88;1.30;;;;;;;7.74;79.60;102878.56;5097210;28;20035;-67
2023/02/27 09:45:22;;;;;;;3.60;1.38;;;;;;;7.81;79.11;102857.44;5080987;28;20042;-67
2023/02/27 09:47:52;;;;;;;2.13;1.10;;;;;;;8.11;78.56;102879.94;5099068;28;20031;-68
2023/02/27 09:50:24;;;;;;;2.20;0.90;;;;;;;8.33;77.96;102882.47;5097968;28;20032;-67
2023/02/27 09:52:49;;;;;;;2.58;0.93;;;;;;;8.37;77.31;102870.47;5106744;28;20024;-67
2023/02/27 09:55:20;;;;;;;2.72;1.00;;;;;;;8.57;77.01;102886.69;5111475;28;20097;-67
2023/02/27 09:57:57;;;;;;;1.40;0.88;;;;;;;8.72;76.08;102893.41;5094582;28;20044;-67
2023/02/27 10:00:32;;;;;;;2.15;0.90;;;;;;;8.66;75.95;102862.56;5101646;28;20443;-67
2023/02/27 10:03:42;;;;;;;3.40;1.02;;;;;;;8.98;75.09;102887.56;5099576;28;20061;-67
2023/02/27 10:06:29;;;;;;;3.50;1.05;;;;;;;9.18;74.43;102884.75;5049765;28;20047;-67
2023/02/27 10:09:09;;;;;;;2.50;0.95;;;;;;;9.33;73.57;102890.56;5099275;28;20027;-67
2023/02/27 10:12:20;;;;;;;2.92;1.13;;;;;;;9.40;72.66;102894.41;5098854;28;20039;-67
2023/02/27 10:14:56;;;;;;;2.10;0.90;;;;;;;9.41;71.88;102874.59;5093080;28;20119;-67
2023/02/27 10:17:40;;;;;;;2.53;0.90;;;;;;;9.76;71.08;102900.06;5095393;28;20105;-68
2023/02/27 10:20:15;;;;;;;1.60;0.80;;;;;;;9.85;70.62;102909.97;5093226;28;20108;-69
2023/02/27 10:22:45;;;;;;;3.35;0.95;;;;;;;9.93;69.87;102905.69;5094104;28;20054;-67
2023/02/27 10:25:18;;;;;;;1.67;0.98;;;;;;;9.91;68.83;102886.19;5097278;28;20142;-67
2023/02/27 10:27:46;;;;;;;2.42;0.80;;;;;;;10.09;68.56;102897.91;5097001;28;20031;-67
2023/02/27 10:30:22;;;;;;;1.70;0.80;;;;;;;10.40;67.67;102900.38;5105207;28;20106;-66
2023/02/27 10:32:52;;;;;;;2.38;0.90;;;;;;;10.40;66.88;102898.56;5092461;28;20074;-67
2023/02/27 10:35:34;;;;;;;2.28;0.77;;;;;;;10.50;64.63;102899.38;5096943;28;20054;-68
2023/02/27 10:38:15;;;;;;;1.30;0.75;;;;;;;10.74;67.22;102895.31;5110206;28;20104;-66
2023/02/27 10:40:41;;;;;;;2.53;0.80;;;;;;;10.50;66.57;102898.53;5116203;28;20340;-67
2023/02/27 10:43:07;;;;;;;1.75;0.98;;;;;;;10.56;65.67;102911.38;5118779;28;20043;-67
2023/02/27 10:45:33;;;;;;;2.10;0.85;;;;;;;10.77;65.52;102909.31;5119190;28;20427;-67
2023/02/27 10:48:01;;;;;;;3.88;1.02;;;;;;;10.65;64.85;102896.19;5118759;28;20011;-67
2023/02/27 10:50:30;;;;;;;1.45;0.90;;;;;;;10.54;63.79;102894.56;5119586;28;20099;-67
2023/02/27 10:53:02;;;;;;;1.55;0.82;;;;;;;10.64;62.95;102895.34;5119834;28;20386;-67
2023/02/27 10:55:39;;;;;;;2.03;0.80;;;;;;;10.71;62.63;102901.84;5113397;28;20031;-67
2023/02/27 10:58:06;;;;;;;2.08;1.20;;;;;;;10.59;61.96;102908.41;5115089;28;20038;-67
2023/02/27 11:00:42;;;;;;;3.25;1.60;;;;;;;10.52;62.04;102902.75;5114278;28;20049;-67
2023/02/27 11:03:22;;;;;;;4.63;2.40;;;;;;;10.30;63.31;102898.59;5095859;28;20028;-67
2023/02/27 11:06:21;;;;;;;4.72;2.28;;;;;;;10.12;64.14;102895.75;5095384;28;20115;-67
2023/02/27 11:09:15;;;;;;;4.80;2.05;;;;;;;10.35;64.16;102901.69;5090158;28;20418;-67
2023/02/27 11:11:41;;;;;;;3.28;1.73;;;;;;;10.57;62.34;102887.03;5087619;28;20043;-67
2023/02/27 11:14:24;;;;;;;3.47;1.70;;;;;;;10.67;62.10;102899.59;5077635;28;20113;-67
2023/02/27 11:16:52;;;;;;;2.92;1.40;;;;;;;10.39;61.14;102904.94;5094162;28;20024;-68
2023/02/27 11:19:34;;;;;;;4.70;1.33;;;;;;;10.44;60.21;102904.50;5097983;28;20105;-67
2023/02/27 11:22:00;;;;;;;2.83;1.42;;;;;;;10.40;60.84;102903.06;5098778;28;20049;-67
2023/02/27 11:24:25;;;;;;;6.65;1.50;;;;;;;10.21;60.70;102882.44;5095689;28;20028;-67
2023/02/27 11:26:57;;;;;;;2.20;1.48;;;;;;;10.23;61.02;102893.88;5100250;28;20030;-67
2023/02/27 11:29:23;;;;;;;2.17;1.33;;;;;;;10.04;60.79;102890.28;5094710;28;20034;-67
2023/02/27 11:32:15;;;;;;;3.33;1.90;;;;;;;9.75;61.32;102841.06;5102865;28;20016;-67
2023/02/27 11:35:01;;;;;;;3.90;2.45;;;;;;;10.00;62.67;102913.06;5099821;28;20047;-66
2023/02/27 11:37:29;;;;;;;5.28;3.08;;;;;;;9.96;63.18;102916.19;5045152;28;20048;-67
2023/02/27 11:40:07;;;;;;;5.10;3.03;;;;;;;9.92;63.18;102909.41;5059520;28;20044;-68
2023/02/27 11:42:35;;;;;;;5.07;2.88;;;;;;;9.81;64.23;102918.47;5055859;28;20543;-68
2023/02/27 11:45:27;;;;;;;4.70;3.08;;;;;;;9.98;63.82;102916.91;5060560;28;20085;-67
2023/02/27 11:47:58;;;;;;;3.90;2.20;;;;;;;10.24;63.43;102915.28;5063018;28;20032;-68
2023/02/27 11:50:33;;;;;;;4.93;2.25;;;;;;;10.27;63.13;102909.66;5101686;28;20032;-68
2023/02/27 11:52:58;;;;;;;2.17;1.48;;;;;;;10.29;62.48;102909.50;5085559;28;20033;-68